createdAt,value
2023-05-10T00:01:40.566Z,11.59
2023-05-10T00:06:49.323Z,11.54
2023-05-10T00:11:52.611Z,11.48
2023-05-10T00:16:55.948Z,11.42
2023-05-10T00:21:59.580Z,11.38
2023-05-10T00:27:05.165Z,11.31
2023-05-10T00:32:08.790Z,11.26
2023-05-10T00:37:12.517Z,11.19
2023-05-10T00:42:15.981Z,11.16
2023-05-10T00:47:20.377Z,11.14
2023-05-10T00:52:25.385Z,11.12
2023-05-10T00:57:29.020Z,11.09
2023-05-10T01:02:32.789Z,11.06
2023-05-10T01:07:36.813Z,11.03
2023-05-10T01:12:43.470Z,11.01
2023-05-10T01:17:48.790Z,10.98
2023-05-10T01:23:16.072Z,10.92
2023-05-10T01:28:38.803Z,10.84
2023-05-10T01:34:03.110Z,10.78
2023-05-10T01:39:17.356Z,10.71
2023-05-10T01:44:23.705Z,10.64
2023-05-10T01:49:30.525Z,10.58
2023-05-10T01:54:35.136Z,10.51
2023-05-10T01:59:51.063Z,10.48
2023-05-10T02:04:56.607Z,10.42
2023-05-10T02:10:01.999Z,10.36
2023-05-10T02:15:08.356Z,10.34
2023-05-10T02:20:14.246Z,10.32
2023-05-10T02:25:21.365Z,10.30
2023-05-10T02:30:29.978Z,10.29
2023-05-10T02:35:35.312Z,10.26
2023-05-10T02:40:40.131Z,10.23
2023-05-10T02:45:45.151Z,10.19
2023-05-10T02:50:52.566Z,10.16
2023-05-10T02:56:02.157Z,10.13
2023-05-10T03:01:06.393Z,10.10
2023-05-10T03:06:10.741Z,10.07
2023-05-10T03:11:29.478Z,10.04
2023-05-10T03:16:45.041Z,10.01
2023-05-10T03:21:52.674Z,9.99
2023-05-10T03:27:00.351Z,10.00
2023-05-10T03:32:04.422Z,10.02
2023-05-10T03:37:08.862Z,10.01
2023-05-10T03:42:13.161Z,10.00
2023-05-10T03:47:16.934Z,10.00
2023-05-10T03:52:20.490Z,10.03
2023-05-10T03:57:24.693Z,10.08
2023-05-10T04:02:28.542Z,10.14
2023-05-10T04:07:32.287Z,10.20
2023-05-10T04:12:35.498Z,10.26
2023-05-10T04:17:39.038Z,10.30
2023-05-10T04:22:42.326Z,10.37
2023-05-10T04:27:45.572Z,10.44
2023-05-10T04:32:49.288Z,10.51
2023-05-10T04:37:52.856Z,10.60
2023-05-10T04:42:56.261Z,10.69
2023-05-10T04:48:00.064Z,10.77
2023-05-10T04:53:03.614Z,10.85
2023-05-10T04:58:06.925Z,10.95
2023-05-10T05:03:10.900Z,11.07
2023-05-10T05:08:14.392Z,11.21
2023-05-10T05:13:18.212Z,11.35
2023-05-10T05:18:22.129Z,11.48
2023-05-10T05:23:26.002Z,11.61
2023-05-10T05:28:34.056Z,11.72
2023-05-10T05:33:38.292Z,11.83
2023-05-10T05:38:43.245Z,11.97
2023-05-10T05:43:46.723Z,12.15
2023-05-10T05:48:50.216Z,12.32
2023-05-10T05:53:54.287Z,12.44
2023-05-10T05:58:57.989Z,12.54
2023-05-10T06:04:10.926Z,12.63
2023-05-10T06:09:14.664Z,12.73
2023-05-10T06:14:17.960Z,12.85
2023-05-10T06:25:45.953Z,13.13
2023-05-10T06:30:49.534Z,13.21
2023-05-10T06:35:53.234Z,13.31
2023-05-10T06:40:56.859Z,13.44
2023-05-10T06:46:00.310Z,13.55
2023-05-10T06:51:04.089Z,13.68
2023-05-10T06:56:07.886Z,13.82
2023-05-10T07:01:11.521Z,13.95
2023-05-10T07:06:29.418Z,14.06
2023-05-10T07:18:01.671Z,14.31
2023-05-10T07:23:05.544Z,14.41
2023-05-10T07:28:09.045Z,14.53
2023-05-10T07:33:18.794Z,14.65
2023-05-10T07:38:25.687Z,14.77
2023-05-10T07:43:29.187Z,14.89
2023-05-10T07:48:32.952Z,15.03
2023-05-10T07:53:36.612Z,15.19
2023-05-10T07:58:39.939Z,15.34
2023-05-10T08:03:43.544Z,15.45
2023-05-10T08:08:50.646Z,15.59
2023-05-10T08:13:54.296Z,15.76
2023-05-10T08:18:57.865Z,15.93
2023-05-10T08:24:02.289Z,16.09
2023-05-10T08:29:06.654Z,16.26
2023-05-10T08:34:12.739Z,16.47
2023-05-10T08:39:26.643Z,16.64
2023-05-10T08:44:33.678Z,16.85
2023-05-10T08:49:43.125Z,16.99
2023-05-10T08:54:46.615Z,17.10
2023-05-10T08:59:50.019Z,17.20
2023-05-10T09:04:53.776Z,17.31
2023-05-10T09:09:58.607Z,17.44
2023-05-10T09:15:03.731Z,17.62
2023-05-10T09:20:08.629Z,17.83
2023-05-10T09:25:17.977Z,18.03
2023-05-10T09:30:25.576Z,18.17
2023-05-10T09:35:31.536Z,18.40
2023-05-10T09:40:35.029Z,18.66
2023-05-10T09:45:39.174Z,18.75
2023-05-10T09:50:43.175Z,18.79
2023-05-10T09:55:47.967Z,18.94
2023-05-10T10:00:54.991Z,19.13
2023-05-10T10:05:58.328Z,19.25
2023-05-10T10:11:03.000Z,19.42
2023-05-10T10:16:06.886Z,19.54
2023-05-10T10:21:10.453Z,19.73
2023-05-10T10:26:14.415Z,19.94
2023-05-10T10:31:40.599Z,20.18
2023-05-10T10:36:50.450Z,20.27
2023-05-10T10:42:01.269Z,20.24
2023-05-10T10:47:28.697Z,20.32
2023-05-10T10:57:47.303Z,20.50
2023-05-10T11:02:58.991Z,20.67
2023-05-10T11:08:10.960Z,20.88
2023-05-10T11:13:15.016Z,21.13
2023-05-10T11:18:28.782Z,21.42
2023-05-10T11:23:52.994Z,21.64
2023-05-10T11:28:56.581Z,21.93
2023-05-10T11:34:02.912Z,22.08
2023-05-10T11:39:06.696Z,22.19
2023-05-10T11:44:10.687Z,22.25
2023-05-10T11:49:14.600Z,22.33
2023-05-10T11:54:17.623Z,22.45
2023-05-10T11:59:20.616Z,22.51
2023-05-10T12:04:23.916Z,22.68
2023-05-10T12:09:43.307Z,22.94
2023-05-10T12:14:51.525Z,23.07
2023-05-10T12:19:54.488Z,22.96
2023-05-10T12:24:59.940Z,22.85
2023-05-10T12:30:03.828Z,22.88
2023-05-10T12:35:07.756Z,23.05
2023-05-10T12:40:12.530Z,23.24
2023-05-10T12:45:16.069Z,23.40
2023-05-10T12:50:19.467Z,23.55
2023-05-10T12:55:22.793Z,23.64
2023-05-10T13:00:26.991Z,23.86
2023-05-10T13:05:34.096Z,23.91
2023-05-10T13:10:37.268Z,23.76
2023-05-10T13:40:21.652Z,23.63
2023-05-10T13:45:25.244Z,23.61
2023-05-10T13:50:29.115Z,23.57
2023-05-10T13:55:32.818Z,23.64
2023-05-10T14:00:36.677Z,23.60
2023-05-10T14:05:39.812Z,23.65
2023-05-10T14:10:43.592Z,23.73
2023-05-10T14:15:47.264Z,23.78
2023-05-10T14:20:50.864Z,23.76
2023-05-10T14:25:54.408Z,23.59
2023-05-10T14:30:57.909Z,23.36
2023-05-10T14:36:01.256Z,23.20
2023-05-10T14:41:04.710Z,23.13
2023-05-10T14:46:08.036Z,22.91
2023-05-10T14:51:12.715Z,22.68
2023-05-10T14:56:16.701Z,22.54
2023-05-10T15:01:20.271Z,22.40
2023-05-10T15:06:32.987Z,22.28
2023-05-10T15:11:37.589Z,22.19
2023-05-10T15:16:40.811Z,22.08
2023-05-10T15:21:45.665Z,22.01
2023-05-10T15:26:49.107Z,21.88
2023-05-10T15:31:52.764Z,21.79
2023-05-10T15:42:33.468Z,21.69
2023-05-10T15:47:37.328Z,21.65
2023-05-10T15:52:40.845Z,21.65
2023-05-10T15:57:44.777Z,21.77
2023-05-10T16:02:48.732Z,21.80
2023-05-10T16:07:52.370Z,21.65
2023-05-10T16:12:56.802Z,21.55
2023-05-10T16:18:00.954Z,21.47
2023-05-10T16:23:07.329Z,21.44
2023-05-10T16:28:12.093Z,21.34
2023-05-10T16:39:29.677Z,20.88
2023-05-10T16:44:33.647Z,20.75
2023-05-10T16:49:37.596Z,20.64
2023-05-10T16:54:41.399Z,20.55
2023-05-10T16:59:44.861Z,20.40
2023-05-10T17:04:48.964Z,20.26
2023-05-10T17:09:52.848Z,20.23
2023-05-10T17:14:56.758Z,20.17
2023-05-10T17:20:00.907Z,20.08
2023-05-10T17:25:05.212Z,19.99
2023-05-10T17:30:09.463Z,19.92
2023-05-10T17:35:12.923Z,19.84
2023-05-10T17:40:16.725Z,19.74
2023-05-10T17:45:21.188Z,19.69
2023-05-10T17:50:25.048Z,19.65
2023-05-10T17:55:32.860Z,19.58
2023-05-10T18:00:37.268Z,19.49
2023-05-10T18:05:41.864Z,19.37
2023-05-10T18:10:48.620Z,19.26
2023-05-10T18:15:52.912Z,19.13
2023-05-10T18:20:58.511Z,18.93
2023-05-10T18:26:03.604Z,18.71
2023-05-10T18:31:09.897Z,18.50
2023-05-10T18:36:15.380Z,18.33
2023-05-10T18:41:19.030Z,18.18
2023-05-10T18:46:23.032Z,18.02
2023-05-10T18:51:29.371Z,17.90
2023-05-10T18:56:34.130Z,17.77
2023-05-10T19:01:38.473Z,17.64
2023-05-10T19:06:44.811Z,17.49
2023-05-10T19:11:48.919Z,17.37
2023-05-10T19:16:54.475Z,17.27
2023-05-10T19:21:58.590Z,17.20
2023-05-10T19:27:05.172Z,17.09
2023-05-10T19:32:12.947Z,16.98
2023-05-10T19:37:16.640Z,16.90
2023-05-10T19:42:20.640Z,16.82
2023-05-10T19:47:24.631Z,16.74
2023-05-10T19:52:29.590Z,16.68
2023-05-10T19:57:33.774Z,16.55
2023-05-10T20:02:37.296Z,16.49
2023-05-10T20:07:41.005Z,16.45
2023-05-10T20:12:53.088Z,16.40
2023-05-10T20:17:57.685Z,16.34
2023-05-10T20:23:02.494Z,16.25
2023-05-10T20:28:10.654Z,16.14
2023-05-10T20:33:16.012Z,16.06
2023-05-10T20:38:19.850Z,16.00
2023-05-10T20:43:24.167Z,15.93
2023-05-10T20:48:27.718Z,15.85
2023-05-10T20:53:31.427Z,15.78
2023-05-10T20:58:36.481Z,15.72
2023-05-10T21:03:41.100Z,15.64
2023-05-10T21:08:45.561Z,15.58
2023-05-10T21:13:49.021Z,15.53
2023-05-10T21:18:52.806Z,15.49
2023-05-10T21:23:56.555Z,15.44
2023-05-10T21:29:00.191Z,15.39
2023-05-10T21:34:04.054Z,15.34
2023-05-10T21:39:08.910Z,15.29
2023-05-10T21:44:12.651Z,15.23
2023-05-10T21:49:16.650Z,15.16
2023-05-10T21:54:20.281Z,15.10
2023-05-10T21:59:24.236Z,15.03
2023-05-10T22:04:30.594Z,14.96
2023-05-10T22:09:34.440Z,14.90
2023-05-10T22:14:39.189Z,14.84
2023-05-10T22:19:43.224Z,14.74
2023-05-10T22:24:48.452Z,14.66
2023-05-10T22:29:52.601Z,14.60
2023-05-10T22:34:57.614Z,14.52
2023-05-10T22:40:01.116Z,14.48
2023-05-10T22:45:05.274Z,14.42
2023-05-10T22:50:09.344Z,14.37
2023-05-10T22:55:12.844Z,14.31
2023-05-10T23:00:17.123Z,14.27
2023-05-10T23:05:20.863Z,14.24
2023-05-10T23:10:24.978Z,14.21
2023-05-10T23:15:28.510Z,14.17
2023-05-10T23:20:42.928Z,14.14
2023-05-10T23:25:46.432Z,14.12
2023-05-10T23:30:56.160Z,14.09
2023-05-10T23:35:59.788Z,14.05
2023-05-10T23:41:06.396Z,14.02
2023-05-10T23:46:09.825Z,13.98
2023-05-10T23:51:13.534Z,13.95
2023-05-10T23:56:17.636Z,13.91
